Irvona, PA

6:44 AM EDT on July 28, 2014 (GMT -0400)
University Park (KUNV) Elev 1240 ft | 40.85 °N, 77.84 °W | Change Station

Current weather conditions updated 9 minutes ago

Mostly Cloudy
Mostly Cloudy
64 °F
Feels Like 64 °F
N
10
Wind Variable Wind from WSW

Today is forecast to be Much Cooler than yesterday. Showers.

Today
High -- | Low -- °F
--% Chance of Precip.
Yesterday
High -- | Low -- °F
Precip. -- in
6:06 AM 8:34 PM
New Moon, 2% visible
Pressure 29.60 in
Visibility 8.0 miles
Clouds Scattered Clouds 2000 ft
Mostly Cloudy 3400 ft
Dew Point 61 °F
Humidity 88%
Rainfall 0.27 in
Snow Depth Not available.
UV 0 out of 12
Pollen 4.70 out of 12
Air Quality Not available.
Flu Activity Not available.
SPECI KUNV 281035Z 25009KT 8SM SCT020 BKN034 18/16 A2960

More Conditions Fewer Conditions

Pressure 29.60 in
Visibility 8.0 miles
Clouds Scattered Clouds 2000 ft
Mostly Cloudy 3400 ft
Dew Point 61 °F
Humidity 88%
Rainfall 0.27 in
Snow Depth Not available.
UV 0 out of 12
Pollen 4.70 out of 12
Air Quality Not available.
Flu Activity Not available.
SPECI KUNV 281035Z 25009KT 8SM SCT020 BKN034 18/16 A2960

More Conditions Fewer Conditions

Nowcast | as of 4:45 am EDT on July 28, 2014

Widely scattered showers will be across north central Pennsylvania through 10 am. Most of the showers will be north of Interstate 80. A brief heavy downpour will be possible in a few spots. The showers are moving northeast at 20 mph.

×

10-Day Weather Forecast

Almanac

Astronomy

Jul. 28, 2014 Rise Set
Actual Time 6:06 AM EDT 8:34 PM EDT
Civil Twilight 5:35 AM EDT 9:05 PM EDT
Nautical Twilight 4:56 AM EDT 9:43 PM EDT
Astronomical Twilight 4:13 AM EDT 10:26 PM EDT
Moon 7:47 AM EDT 9:13 PM EDT
Length of Visible Light 15h 29m
Length of Day
14h 27m
Tomorrow will be 1m 57s shorter.
New Moon, 2% of the Moon is Illuminated
Today
New Moon
Aug 3
First Quarter
Aug 10
Full
Aug 17
Last Quarter
Aug 25
New

Today's Extremes

State Highs State Lows

Community

WunderPhotos

Upload Photos

1,738,295 photos uploaded!

Nearby

Snow Depth

Station Depth Elevation
No new snow has been reported.

Earthquake Activity

City Distance Mag. Time & Date
No recent earthquake activity has been reported nearby.
Minimum magnitude displayed is 2.5.

Coastal Water Temperatures

Place Temperature
No Stations Reporting

Nearby Weather Stations

Station Location Temp. Dew Point Humidity Wind Precip. Elev Updated Type
Tyrone, Tyrone, PA 63.7 °F 63 °F 96% NW  at  7.0 mph 0.00 in / hr 1138 ft 6:35 AM EDT Normal
NE Altoona-Broadway, Altoona, PA 66.0 °F 66 °F 99% North  at  4.3 mph - / hr 1188 ft 6:39 AM EDT Normal
Colver, Colver Streets, PA 59.3 °F 59 °F 98% SW  at  1.0 mph 0.00 in / hr 2149 ft 6:35 AM EDT Normal
West End, Punxsutawney, PA 61.8 °F 60 °F 93% North  at  0.0 mph 0.00 in / hr 1279 ft 6:44 AM EDT Rapid Fire
Spring Mount, Warriors Mark, PA 63.3 °F 62 °F 97% SW  at  0.0 mph 0.00 in / hr 1325 ft 6:43 AM EDT Rapid Fire

Show More Stations Show Fewer Stations